地図

経路データ

SID SEASON NUMBER BASIN SUBBASIN NAME ISO_TIME NATURE LAT LON WMO_WIND WMO_PRES WMO_AGENCY TRACK_TYPE DIST2LAND LANDFALL IFLAG USA_AGENCY USA_ATCF_ID USA_LAT USA_LON USA_RECORD USA_STATUS USA_WIND USA_PRES USA_SSHS USA_R34_NE USA_R34_SE USA_R34_SW USA_R34_NW USA_R50_NE USA_R50_SE USA_R50_SW USA_R50_NW USA_R64_NE USA_R64_SE USA_R64_SW USA_R64_NW USA_POCI USA_ROCI USA_RMW USA_EYE TOKYO_LAT TOKYO_LON TOKYO_GRADE TOKYO_WIND TOKYO_PRES TOKYO_R50_DIR TOKYO_R50_LONG TOKYO_R50_SHORT TOKYO_R30_DIR TOKYO_R30_LONG TOKYO_R30_SHORT TOKYO_LAND CMA_LAT CMA_LON CMA_CAT CMA_WIND CMA_PRES HKO_LAT HKO_LON HKO_CAT HKO_WIND HKO_PRES NEWDELHI_LAT NEWDELHI_LON NEWDELHI_GRADE NEWDELHI_WIND NEWDELHI_PRES NEWDELHI_CI NEWDELHI_DP NEWDELHI_POCI REUNION_LAT REUNION_LON REUNION_TYPE REUNION_WIND REUNION_PRES REUNION_TNUM REUNION_CI REUNION_RMW REUNION_R34_NE REUNION_R34_SE REUNION_R34_SW REUNION_R34_NW REUNION_R50_NE REUNION_R50_SE REUNION_R50_SW REUNION_R50_NW REUNION_R64_NE REUNION_R64_SE REUNION_R64_SW REUNION_R64_NW BOM_LAT BOM_LON BOM_TYPE BOM_WIND BOM_PRES BOM_TNUM BOM_CI BOM_RMW BOM_R34_NE BOM_R34_SE BOM_R34_SW BOM_R34_NW BOM_R50_NE BOM_R50_SE BOM_R50_SW BOM_R50_NW BOM_R64_NE BOM_R64_SE BOM_R64_SW BOM_R64_NW BOM_ROCI BOM_POCI BOM_EYE BOM_POS_METHOD BOM_PRES_METHOD NADI_LAT NADI_LON NADI_CAT NADI_WIND NADI_PRES WELLINGTON_LAT WELLINGTON_LON WELLINGTON_WIND WELLINGTON_PRES DS824_LAT DS824_LON DS824_STAGE DS824_WIND DS824_PRES TD9636_LAT TD9636_LON TD9636_STAGE TD9636_WIND TD9636_PRES TD9635_LAT TD9635_LON TD9635_WIND TD9635_PRES TD9635_ROCI NEUMANN_LAT NEUMANN_LON NEUMANN_CLASS NEUMANN_WIND NEUMANN_PRES MLC_LAT MLC_LON MLC_CLASS MLC_WIND MLC_PRES USA_GUST BOM_GUST BOM_GUST_PER REUNION_GUST REUNION_GUST_PER USA_SEAHGT USA_SEARAD_NE USA_SEARAD_SE USA_SEARAD_SW USA_SEARAD_NW STORM_SPEED STORM_DIR
1921323N21295 1921 66 NA NA NOT_NAMED 1921-11-19 00:00:00 TS 20.9000 -65.0000 25 hurdat_atl main 286 284 O_____________ hurdat_atl AL071921 20.9000 -65.0000 TD 25 -1 10 288
1921323N21295 1921 66 NA NA NOT_NAMED 1921-11-19 03:00:00 TS 21.0503 -65.4998 main 302 302 P_____________ AL071921 21.0503 -65.4998 TD 25 -1 10 288
1921323N21295 1921 66 NA NA NOT_NAMED 1921-11-19 06:00:00 TS 21.2000 -66.0000 25 hurdat_atl main 313 313 O_____________ hurdat_atl AL071921 21.2000 -66.0000 TD 25 -1 10 288
1921323N21295 1921 66 NA NA NOT_NAMED 1921-11-19 09:00:00 TS 21.3499 -66.5001 main 324 324 P_____________ AL071921 21.3499 -66.5001 TD 27 -1 10 288
1921323N21295 1921 66 NA NA NOT_NAMED 1921-11-19 12:00:00 TS 21.5000 -67.0000 30 hurdat_atl main 343 318 O_____________ hurdat_atl AL071921 21.5000 -67.0000 TD 30 -1 10 288
1921323N21295 1921 66 NA NA NOT_NAMED 1921-11-19 15:00:00 TS 21.6498 -67.5001 main 318 310 P_____________ AL071921 21.6498 -67.5001 TD 30 -1 10 288
1921323N21295 1921 66 NA NA NOT_NAMED 1921-11-19 18:00:00 TS 21.8000 -68.0000 30 hurdat_atl main 310 300 O_____________ hurdat_atl AL071921 21.8000 -68.0000 TD 30 -1 10 288
1921323N21295 1921 66 NA NA NOT_NAMED 1921-11-19 21:00:00 TS 21.9573 -68.5000 main 310 295 P_____________ AL071921 21.9573 -68.5000 TD 30 -1 10 288
1921323N21295 1921 66 NA NA NOT_NAMED 1921-11-20 00:00:00 TS 22.1000 -69.0000 30 hurdat_atl main 298 291 O_____________ hurdat_atl AL071921 22.1000 -69.0000 TD 30 -1 10 285
1921323N21295 1921 66 NA NA NOT_NAMED 1921-11-20 03:00:00 TS 22.2073 -69.5002 main 291 284 P_____________ AL071921 22.2073 -69.5002 TD 32 -1 9 282
1921323N21295 1921 66 NA NA NOT_NAMED 1921-11-20 06:00:00 TS 22.3000 -70.0000 35 hurdat_atl main 286 281 O_____________ hurdat_atl AL071921 22.3000 -70.0000 TS 35 0 9 282
1921323N21295 1921 66 NA NA NOT_NAMED 1921-11-20 09:00:00 TS 22.3998 -70.5001 main 290 252 P_____________ AL071921 22.3998 -70.5001 TS 35 0 9 282
1921323N21295 1921 66 NA NA NOT_NAMED 1921-11-20 12:00:00 TS 22.5000 -71.0000 35 hurdat_atl main 252 220 O_____________ hurdat_atl AL071921 22.5000 -71.0000 TS 35 0 10 283
1921323N21295 1921 66 NA NA NOT_NAMED 1921-11-20 15:00:00 TS 22.6074 -71.5075 main 220 196 P_____________ AL071921 22.6074 -71.5075 TS 37 0 9 282
1921323N21295 1921 66 NA NA NOT_NAMED 1921-11-20 18:00:00 TS 22.7000 -72.0000 40 hurdat_atl main 196 178 O_____________ hurdat_atl AL071921 22.7000 -72.0000 TS 40 0 9 280
1921323N21295 1921 66 NA NA NOT_NAMED 1921-11-20 21:00:00 TS 22.7574 -72.4651 main 186 179 P_____________ AL071921 22.7574 -72.4651 TS 40 0 8 277
1921323N21295 1921 66 NA NA NOT_NAMED 1921-11-21 00:00:00 TS 22.8000 -72.9000 40 hurdat_atl main 179 178 O_____________ hurdat_atl AL071921 22.8000 -72.9000 TS 40 0 8 277
1921323N21295 1921 66 NA NA NOT_NAMED 1921-11-21 03:00:00 TS 22.8498 -73.3075 main 179 179 P_____________ AL071921 22.8498 -73.3075 TS 42 0 7 278
1921323N21295 1921 66 NA NA NOT_NAMED 1921-11-21 06:00:00 TS 22.9000 -73.7000 45 hurdat_atl main 196 196 O_____________ hurdat_atl AL071921 22.9000 -73.7000 TS 45 0 7 279
1921323N21295 1921 66 NA NA NOT_NAMED 1921-11-21 09:00:00 TS 22.9650 -74.1074 main 216 216 P_____________ AL071921 22.9650 -74.1074 TS 47 0 7 278
1921323N21295 1921 66 NA NA NOT_NAMED 1921-11-21 12:00:00 TS 23.0000 -74.5000 50 hurdat_atl main 227 227 O_____________ hurdat_atl AL071921 23.0000 -74.5000 TS 50 0 7 270
1921323N21295 1921 66 NA NA NOT_NAMED 1921-11-21 15:00:00 TS 22.9649 -74.8651 main 234 216 P_____________ AL071921 22.9649 -74.8651 TS 50 0 7 261
1921323N21295 1921 66 NA NA NOT_NAMED 1921-11-21 18:00:00 TS 22.9000 -75.2000 50 hurdat_atl main 216 203 O_____________ hurdat_atl AL071921 22.9000 -75.2000 TS 50 0 6 259
1921323N21295 1921 66 NA NA NOT_NAMED 1921-11-21 21:00:00 TS 22.8499 -75.5000 main 192 181 P_____________ AL071921 22.8499 -75.5000 TS 47 0 6 260
1921323N21295 1921 66 NA NA NOT_NAMED 1921-11-22 00:00:00 TS 22.8000 -75.8000 45 hurdat_atl main 181 160 O_____________ hurdat_atl AL071921 22.8000 -75.8000 TS 45 0 6 261
1921323N21295 1921 66 NA NA NOT_NAMED 1921-11-22 03:00:00 TS 22.7573 -76.1199 main 160 127 P_____________ AL071921 22.7573 -76.1199 TS 45 0 7 261
1921323N21295 1921 66 NA NA NOT_NAMED 1921-11-22 06:00:00 TS 22.7000 -76.5000 45 hurdat_atl main 127 102 O_____________ hurdat_atl AL071921 22.7000 -76.5000 TS 45 0 8 259
1921323N21295 1921 66 NA NA NOT_NAMED 1921-11-22 09:00:00 TS 22.6073 -76.9550 main 101 73 P_____________ AL071921 22.6073 -76.9550 TS 42 0 9 258
1921323N21295 1921 66 NA NA NOT_NAMED 1921-11-22 12:00:00 TS 22.5000 -77.5000 40 hurdat_atl main 73 32 O_____________ hurdat_atl AL071921 22.5000 -77.5000 TS 40 0 11 259
1921323N21295 1921 66 NA NA NOT_NAMED 1921-11-22 15:00:00 TS 22.3923 -78.1126 main 32 0 P_____________ AL071921 22.3923 -78.1126 TS 40 0 12 261
1921323N21295 1921 66 NA NA NOT_NAMED 1921-11-22 18:00:00 TS 22.3000 -78.8000 40 hurdat_atl main 0 0 O_____________ hurdat_atl AL071921 22.3000 -78.8000 TS 40 0 13 264
1921323N21295 1921 66 NA NA NOT_NAMED 1921-11-22 21:00:00 TS 22.2426 -79.5574 main 0 0 P_____________ AL071921 22.2426 -79.5574 TS 37 0 14 266
1921323N21295 1921 66 NA NA NOT_NAMED 1921-11-23 00:00:00 TS 22.2000 -80.3000 35 hurdat_atl main 0 0 O_____________ hurdat_atl AL071921 22.2000 -80.3000 TS 35 0 13 266
1921323N21295 1921 66 NA NA NOT_NAMED 1921-11-23 03:00:00 TS 22.1497 -80.9374 main 0 0 P_____________ AL071921 22.1497 -80.9374 TS 35 0 11 265
1921323N21295 1921 66 NA CS NOT_NAMED 1921-11-23 06:00:00 TS 22.1000 -81.5000 35 hurdat_atl main 10 10 O_____________ hurdat_atl AL071921 22.1000 -81.5000 TS 35 0 10 264
1921323N21295 1921 66 NA CS NOT_NAMED 1921-11-23 09:00:00 TS 22.0423 -82.0225 main 30 30 P_____________ AL071921 22.0423 -82.0225 TS 32 -1 9 264
1921323N21295 1921 66 NA CS NOT_NAMED 1921-11-23 12:00:00 TS 22.0000 -82.5000 30 hurdat_atl main 30 22 O_____________ hurdat_atl AL071921 22.0000 -82.5000 TD 30 -1 9 266
1921323N21295 1921 66 NA CS NOT_NAMED 1921-11-23 15:00:00 TS 21.9848 -82.9575 main 22 22 P_____________ AL071921 21.9848 -82.9575 TD 30 -1 8 270
1921323N21295 1921 66 NA CS NOT_NAMED 1921-11-23 18:00:00 TS 22.0000 -83.4000 30 hurdat_atl main 22 20 O_____________ hurdat_atl AL071921 22.0000 -83.4000 TD 30 -1 8 273
1921323N21295 1921 66 NA CS NOT_NAMED 1921-11-23 21:00:00 TS 22.0349 -83.8500 main 10 0 P_____________ AL071921 22.0349 -83.8500 TD 30 -1 8 277
1921323N21295 1921 66 NA NA NOT_NAMED 1921-11-24 00:00:00 TS 22.1000 -84.3000 30 hurdat_atl main 0 0 O_____________ hurdat_atl AL071921 22.1000 -84.3000 TD 30 -1 9 281
1921323N21295 1921 66 NA GM NOT_NAMED 1921-11-24 03:00:00 TS 22.1924 -84.7575 main 33 33 P_____________ AL071921 22.1924 -84.7575 TD 30 -1 9 283
1921323N21295 1921 66 NA GM NOT_NAMED 1921-11-24 06:00:00 TS 22.3000 -85.2000 30 hurdat_atl main 49 49 O_____________ hurdat_atl AL071921 22.3000 -85.2000 TD 30 -1 8 284
1921323N21295 1921 66 NA GM NOT_NAMED 1921-11-24 09:00:00 TS 22.4000 -85.6375 main 83 83 P_____________ AL071921 22.4000 -85.6375 TD 27 -1 8 285
1921323N21295 1921 66 NA GM NOT_NAMED 1921-11-24 12:00:00 TS 22.5000 -86.0000 25 hurdat_atl main 122 122 O_____________ hurdat_atl AL071921 22.5000 -86.0000 TD 25 -1 6 289
1921323N21295 1921 66 NA GM NOT_NAMED 1921-11-24 15:00:00 TS 22.5999 -86.2525 main 142 142 P_____________ AL071921 22.5999 -86.2525 TD 25 -1 4 298
1921323N21295 1921 66 NA GM NOT_NAMED 1921-11-24 18:00:00 TS 22.7000 -86.4000 25 hurdat_atl main 147 147 O_____________ hurdat_atl AL071921 22.7000 -86.4000 TD 25 -1 3 312
1921323N21295 1921 66 NA GM NOT_NAMED 1921-11-24 21:00:00 TS 22.7925 -86.4800 main 154 154 P_____________ AL071921 22.7925 -86.4800 TD 25 -1 2 335
1921323N21295 1921 66 NA GM NOT_NAMED 1921-11-25 00:00:00 TS 22.9000 -86.5000 25 hurdat_atl main 164 164 O_____________ hurdat_atl AL071921 22.9000 -86.5000 TD 25 -1 3 358
1921323N21295 1921 66 NA GM NOT_NAMED 1921-11-25 03:00:00 TS 23.0425 -86.5075 main 175 175 P_____________ AL071921 23.0425 -86.5075 TD 25 -1 3 0
1921323N21295 1921 66 NA GM NOT_NAMED 1921-11-25 06:00:00 TS 23.2000 -86.5000 25 hurdat_atl main 196 196 O_____________ hurdat_atl AL071921 23.2000 -86.5000 TD 25 -1 3 5
1921323N21295 1921 66 NA GM NOT_NAMED 1921-11-25 09:00:00 TS 23.3350 -86.5000 main 207 207 P_____________ AL071921 23.3350 -86.5000 TD 25 -1 3 0
1921323N21295 1921 66 NA GM NOT_NAMED 1921-11-25 12:00:00 TS 23.5000 -86.5000 25 hurdat_atl main 229 229 O_____________ hurdat_atl AL071921 23.5000 -86.5000 TD 25 -1 4 3
1921323N21295 1921 66 NA GM NOT_NAMED 1921-11-25 15:00:00 TS 23.7300 -86.5000 main 251 251 P_____________ AL071921 23.7300 -86.5000 TD 25 -1 5 2
1921323N21295 1921 66 NA GM NOT_NAMED 1921-11-25 18:00:00 TS 24.0000 -86.5000 25 hurdat_atl main 280 O_____________ hurdat_atl AL071921 24.0000 -86.5000 TD 25 -1 5 5

IBTrACS Databaseについて

本データベースは、米国NOAAが公開する1842年以降の世界の熱帯低気圧のベストトラックデータアーカイブInternational Best Track Archive for Climate Stewardship (IBTrACS)を、ウェブで閲覧しやすい形式に変換したものです。

最終更新日:2021-10-21